Decoded Metar for OINZ (DASHT-E-NAZ in IRAN) (IATA:N/A) | Meteo·Mobile Aviation Weather
aviador You're here:

OINZ Decoded Metar

DASHT-E-NAZ in IRAN
Report Time2019-10-19 22:00:00
UTC Time2019-10-19 22:27:56
Flight Rules vfr VFR
Wind170° at 04 kt
W.Decomp.*RWY 16: 4.0 kt HW 0.5 kt RCW
Visibility9999 m
Phenomena:N/A
Clouds:N/A
Expected CloudBase > 400 ft AGL from Temp-Dew spread
CeilingNone
Temp16°C (ISA +1)
Dew Point15°C (94% RH)
QNH1019 hPa
Density Alt187 ft
Elevation36 ft
Report Wrong Elevation
Raw Report
OINZ 192200Z 17004KT CAVOK 16/15 Q1019=

Extra information for OINZ:More info

Metar Taf Metar & Taf Last 4 Metars F.Rules Stats Wind Profile Meteogram Temp Stats Airport Information Weather charts Add Link Nearby VenuesMetar ALERT Operation Metar Decoded Social comments